LGZA/ZTH METAR and TAF weather

Enter ICAO airport designator
Station Type Date Time Source
LGZA METAR 2019/06/18 17:20 UTC NOAA

LGZA 181720Z 04004KT 9999 FEW030 29/20 Q1012


Station Type Date Time Source
LGZA Decoded METAR 2019/06/18 17:20 UTC NOAA

Zakinthos Airport , Greece (LGZA) 37-45N 020-53E
Jun 18, 2019 - 01:20 PM EDT / 2019.06.18 1720 UTC
Wind: from the NE (040 degrees) at 5 MPH (4 KT):0
Visibility: greater than 7 mile(s):0
Sky conditions: mostly clear
Temperature: 84 F (29 C)
Dew Point: 68 F (20 C)
Relative Humidity: 58%
Pressure (altimeter): 29.88 in. Hg (1012 hPa)
ob: LGZA 181720Z 04004KT 9999 FEW030 29/20 Q1012
cycle: 17

Station Type Date Time Source
LGZA TAF 2011/11/25 15:06 UTC NOAA

TAF TAF LGZA 251400Z 2515/2603 02012KT 9999 FEW025 SCT035 BKN080 PROB30
TEMPO 2518/2603 8000 RA PROB30 2522/2603 5000 BR SCT010

Example: see airport list